createdAt,value
2023-04-18T00:00:17.332Z,53.98
2023-04-18T00:02:43.950Z,53.59
2023-04-18T00:05:10.663Z,53.98
2023-04-18T00:07:37.107Z,53.63
2023-04-18T00:10:03.503Z,53.88
2023-04-18T00:12:29.867Z,53.93
2023-04-18T00:14:56.246Z,54.20
2023-04-18T00:17:22.630Z,54.08
2023-04-18T00:19:49.041Z,55.22
2023-04-18T00:22:15.448Z,54.60
2023-04-18T00:24:41.829Z,54.86
2023-04-18T00:27:08.218Z,54.47
2023-04-18T00:29:34.584Z,54.15
2023-04-18T00:32:00.971Z,55.44
2023-04-18T00:34:27.330Z,54.75
2023-04-18T00:36:53.697Z,54.93
2023-04-18T00:39:20.081Z,54.86
2023-04-18T00:41:46.551Z,56.01
2023-04-18T00:44:13.200Z,55.52
2023-04-18T00:46:39.769Z,55.35
2023-04-18T00:49:06.171Z,55.04
2023-04-18T00:51:32.554Z,55.63
2023-04-18T00:53:58.912Z,55.73
2023-04-18T00:56:25.302Z,55.23
2023-04-18T00:58:51.714Z,55.45
2023-04-18T01:01:18.211Z,55.77
2023-04-18T01:03:44.874Z,55.63
2023-04-18T01:06:11.345Z,54.70
2023-04-18T01:08:37.710Z,53.95
2023-04-18T01:11:04.326Z,53.68
2023-04-18T01:13:30.802Z,53.32
2023-04-18T01:15:57.232Z,53.41
2023-04-18T01:18:23.618Z,53.81
2023-04-18T01:20:49.968Z,53.17
2023-04-18T01:23:16.360Z,52.85
2023-04-18T01:25:42.732Z,53.33
2023-04-18T01:28:09.126Z,53.17
2023-04-18T01:30:35.542Z,52.78
2023-04-18T01:33:01.969Z,53.29
2023-04-18T01:35:28.388Z,52.63
2023-04-18T01:37:54.740Z,52.34
2023-04-18T01:40:21.156Z,52.59
2023-04-18T01:42:47.540Z,52.96
2023-04-18T01:45:13.922Z,52.62
2023-04-18T01:47:40.399Z,52.54
2023-04-18T01:50:06.845Z,53.37
2023-04-18T01:52:33.453Z,53.82
2023-04-18T01:54:59.830Z,53.15
2023-04-18T01:57:26.198Z,53.63
2023-04-18T01:59:52.634Z,53.61
2023-04-18T02:02:19.138Z,52.99
2023-04-18T02:04:45.627Z,53.68
2023-04-18T02:07:12.281Z,52.69
2023-04-18T02:09:38.663Z,53.34
2023-04-18T02:12:05.084Z,53.92
2023-04-18T02:14:31.478Z,53.43
2023-04-18T02:16:58.112Z,53.30
2023-04-18T02:19:24.525Z,53.72
2023-04-18T02:21:50.899Z,54.37
2023-04-18T02:24:17.299Z,54.20
2023-04-18T02:26:43.672Z,54.43
2023-04-18T02:29:10.061Z,54.09
2023-04-18T02:31:36.502Z,54.89
2023-04-18T02:34:02.915Z,55.04
2023-04-18T02:36:29.282Z,54.40
2023-04-18T02:38:55.649Z,54.79
2023-04-18T02:41:22.480Z,54.16
2023-04-18T02:43:48.874Z,54.67
2023-04-18T02:46:15.372Z,54.31
2023-04-18T02:48:41.790Z,53.83
2023-04-18T02:51:08.382Z,53.41
2023-04-18T02:53:34.884Z,53.71
2023-04-18T02:56:01.282Z,53.69
2023-04-18T02:58:27.674Z,52.82
2023-04-18T03:00:54.182Z,53.67
2023-04-18T03:03:20.716Z,52.86
2023-04-18T03:05:47.184Z,53.01
2023-04-18T03:08:13.703Z,53.90
2023-04-18T03:10:40.051Z,54.02
2023-04-18T03:13:06.458Z,53.52
2023-04-18T03:15:32.892Z,53.88
2023-04-18T03:17:59.495Z,53.37
2023-04-18T03:20:26.000Z,52.98
2023-04-18T03:22:52.407Z,53.30
2023-04-18T03:25:18.829Z,53.16
2023-04-18T03:27:46.646Z,53.15
2023-04-18T03:30:13.044Z,53.82
2023-04-18T03:32:39.471Z,54.34
2023-04-18T03:35:05.915Z,53.78
2023-04-18T03:37:32.346Z,53.78
2023-04-18T03:39:58.816Z,53.27
2023-04-18T03:42:25.219Z,54.10
2023-04-18T03:44:51.585Z,53.78
2023-04-18T03:47:18.199Z,54.35
2023-04-18T03:49:44.589Z,53.83
2023-04-18T03:52:10.951Z,54.60
2023-04-18T03:54:37.328Z,53.82
2023-04-18T03:57:03.720Z,54.04
2023-04-18T03:59:30.096Z,54.28
2023-04-18T04:01:56.555Z,53.69
2023-04-18T04:04:23.075Z,53.27
2023-04-18T04:06:49.530Z,53.60
2023-04-18T04:09:15.926Z,53.59
2023-04-18T04:11:42.318Z,54.12
2023-04-18T04:14:08.710Z,54.88
2023-04-18T04:16:35.099Z,54.86
2023-04-18T04:19:04.378Z,54.64
2023-04-18T04:21:30.748Z,54.79
2023-04-18T04:23:57.099Z,54.04
2023-04-18T04:26:23.461Z,54.72
2023-04-18T04:28:49.852Z,54.44
2023-04-18T04:31:16.402Z,54.40
2023-04-18T04:33:42.868Z,54.88
2023-04-18T04:36:09.248Z,55.60
2023-04-18T04:38:35.618Z,54.61
2023-04-18T04:41:01.989Z,54.30
2023-04-18T04:43:28.391Z,55.11
2023-04-18T04:45:54.795Z,55.15
2023-04-18T04:48:21.198Z,54.92
2023-04-18T04:50:47.629Z,54.55
2023-04-18T04:53:14.117Z,54.75
2023-04-18T04:55:40.560Z,55.82
2023-04-18T04:58:06.928Z,54.95
2023-04-18T05:00:33.461Z,54.65
2023-04-18T05:03:00.087Z,56.14
2023-04-18T05:05:26.555Z,55.99
2023-04-18T05:07:52.944Z,55.68
2023-04-18T05:10:19.348Z,56.02
2023-04-18T05:12:45.725Z,55.59
2023-04-18T05:15:12.148Z,55.91
2023-04-18T05:17:38.590Z,55.17
2023-04-18T05:20:07.300Z,55.07
2023-04-18T05:22:34.074Z,55.32
2023-04-18T05:25:00.474Z,55.44
2023-04-18T05:27:26.890Z,55.08
2023-04-18T05:29:53.308Z,55.74
2023-04-18T05:32:19.895Z,54.97
2023-04-18T05:34:46.305Z,54.53
2023-04-18T05:37:12.687Z,55.16
2023-04-18T05:39:39.061Z,55.49
2023-04-18T05:42:05.461Z,54.98
2023-04-18T05:44:31.813Z,56.01
2023-04-18T05:46:58.176Z,55.58
2023-04-18T05:49:24.600Z,55.32
2023-04-18T05:51:51.001Z,55.79
2023-04-18T05:54:17.424Z,54.70
2023-04-18T05:56:43.910Z,54.63
2023-04-18T05:59:10.632Z,55.03
2023-04-18T06:01:37.038Z,54.92
2023-04-18T06:04:03.529Z,54.38
2023-04-18T06:06:30.092Z,54.15
2023-04-18T06:08:56.693Z,54.18
2023-04-18T06:11:23.064Z,53.96
2023-04-18T06:13:49.452Z,53.50
2023-04-18T06:16:15.839Z,54.29
2023-04-18T06:18:42.306Z,54.26
2023-04-18T06:21:08.688Z,53.97
2023-04-18T06:23:35.283Z,54.80
2023-04-18T06:26:01.689Z,54.82
2023-04-18T06:28:28.084Z,54.40
2023-04-18T06:30:54.532Z,53.82
2023-04-18T06:33:20.950Z,53.29
2023-04-18T06:35:47.416Z,53.69
2023-04-18T06:38:16.838Z,53.45
2023-04-18T06:40:43.431Z,53.15
2023-04-18T06:43:09.821Z,53.16
2023-04-18T06:45:36.477Z,53.27
2023-04-18T06:48:03.254Z,52.39
2023-04-18T06:50:30.076Z,52.67
2023-04-18T06:52:56.987Z,52.85
2023-04-18T06:55:23.512Z,52.09
2023-04-18T06:57:49.914Z,52.04
2023-04-18T07:00:16.339Z,51.97
2023-04-18T07:02:42.933Z,51.39
2023-04-18T07:05:09.700Z,50.56
2023-04-18T07:07:36.321Z,50.52
2023-04-18T07:10:02.824Z,50.80
2023-04-18T07:12:29.197Z,51.54
2023-04-18T07:14:55.583Z,51.40
2023-04-18T07:17:22.050Z,52.98
2023-04-18T07:19:48.478Z,51.73
2023-04-18T07:22:14.845Z,52.34
2023-04-18T07:24:41.271Z,51.94
2023-04-18T07:27:07.757Z,52.72
2023-04-18T07:29:34.441Z,53.58
2023-04-18T07:32:02.991Z,53.53
2023-04-18T07:34:29.677Z,53.75
2023-04-18T07:36:56.232Z,53.63
2023-04-18T07:39:22.881Z,54.07
2023-04-18T07:41:49.348Z,53.28
2023-04-18T07:44:15.954Z,52.35
2023-04-18T07:46:42.565Z,52.25
2023-04-18T07:49:09.083Z,51.04
2023-04-18T07:51:35.739Z,49.89
2023-04-18T07:54:02.258Z,49.57
2023-04-18T07:56:28.780Z,48.90
2023-04-18T07:58:55.212Z,48.79
2023-04-18T08:01:21.623Z,48.05
2023-04-18T08:03:48.233Z,47.36
2023-04-18T08:06:14.727Z,47.55
2023-04-18T08:08:41.107Z,46.91
2023-04-18T08:11:07.540Z,46.87
2023-04-18T08:13:33.940Z,47.20
2023-04-18T08:16:00.384Z,46.50
2023-04-18T08:18:26.841Z,46.16
2023-04-18T08:20:55.269Z,46.21
2023-04-18T08:23:21.705Z,46.08
2023-04-18T08:25:48.612Z,45.61
2023-04-18T08:28:15.082Z,45.05
2023-04-18T08:30:41.515Z,45.38
2023-04-18T08:33:07.985Z,45.07
2023-04-18T08:35:34.441Z,44.94
2023-04-18T08:38:00.815Z,44.03
2023-04-18T08:40:27.258Z,43.01
2023-04-18T08:42:53.921Z,43.15
2023-04-18T08:45:20.546Z,42.84
2023-04-18T08:47:47.038Z,42.28
2023-04-18T08:50:13.564Z,41.54
2023-04-18T08:52:39.955Z,41.63
2023-04-18T08:55:06.356Z,42.39
2023-04-18T08:57:32.821Z,42.69
2023-04-18T08:59:59.244Z,42.39
2023-04-18T09:02:25.793Z,41.96
2023-04-18T09:04:52.754Z,42.79
2023-04-18T09:07:19.390Z,42.59
2023-04-18T09:09:45.771Z,42.80
2023-04-18T09:12:12.176Z,42.56
2023-04-18T09:14:38.595Z,42.31
2023-04-18T09:17:05.093Z,41.91
2023-04-18T09:19:31.556Z,41.82
2023-04-18T09:21:57.991Z,41.48
2023-04-18T09:24:24.551Z,41.70
2023-04-18T09:26:51.076Z,41.44
2023-04-18T09:29:17.853Z,42.20
2023-04-18T09:31:44.223Z,41.91
2023-04-18T09:34:10.678Z,42.20
2023-04-18T09:36:37.146Z,42.56
2023-04-18T09:39:03.629Z,41.98
2023-04-18T09:41:30.117Z,42.16
2023-04-18T09:43:56.498Z,42.36
2023-04-18T09:46:23.057Z,41.80
2023-04-18T09:48:49.530Z,41.84
2023-04-18T09:51:15.933Z,42.40
2023-04-18T09:53:42.361Z,42.95
2023-04-18T09:56:08.823Z,43.28
2023-04-18T09:58:35.262Z,42.83
2023-04-18T10:01:01.734Z,42.63
2023-04-18T10:03:28.171Z,42.60
2023-04-18T10:05:57.093Z,44.08
2023-04-18T10:08:24.152Z,43.21
2023-04-18T10:10:50.581Z,43.84
2023-04-18T10:13:16.988Z,43.82
2023-04-18T10:15:45.244Z,43.79
2023-04-18T10:18:14.985Z,43.59
2023-04-18T10:20:41.520Z,43.28
2023-04-18T10:23:08.029Z,43.20
2023-04-18T10:25:34.403Z,43.72
2023-04-18T10:28:00.836Z,43.38
2023-04-18T10:30:27.225Z,43.65
2023-04-18T10:32:53.769Z,43.27
2023-04-18T10:35:20.192Z,43.84
2023-04-18T10:37:46.702Z,43.17
2023-04-18T10:40:13.108Z,43.51
2023-04-18T10:42:39.500Z,42.97
2023-04-18T10:45:05.957Z,42.49
2023-04-18T10:47:32.587Z,42.28
2023-04-18T10:49:59.346Z,43.58
2023-04-18T10:52:25.705Z,43.15
2023-04-18T10:54:52.308Z,43.30
2023-04-18T10:57:18.748Z,44.20
2023-04-18T10:59:45.147Z,43.99
2023-04-18T11:02:11.586Z,43.28
2023-04-18T11:04:40.386Z,42.67
2023-04-18T11:07:06.830Z,42.87
2023-04-18T11:09:33.206Z,43.22
2023-04-18T11:11:59.591Z,42.76
2023-04-18T11:14:26.167Z,41.66
2023-04-18T11:16:52.564Z,42.19
2023-04-18T11:19:18.987Z,42.44
2023-04-18T11:21:45.414Z,41.68
2023-04-18T11:24:12.021Z,42.20
2023-04-18T11:26:38.651Z,41.13
2023-04-18T11:29:05.149Z,40.79
2023-04-18T11:31:31.600Z,41.21
2023-04-18T11:33:58.129Z,41.67
2023-04-18T11:36:24.635Z,41.08
2023-04-18T11:38:51.120Z,42.19
2023-04-18T11:41:17.699Z,41.98
2023-04-18T11:43:44.095Z,40.45
2023-04-18T11:46:10.617Z,40.68
2023-04-18T11:48:37.116Z,40.63
2023-04-18T11:51:03.524Z,39.98
2023-04-18T11:53:29.924Z,39.91
2023-04-18T11:55:56.419Z,39.24
2023-04-18T11:58:22.843Z,39.80
2023-04-18T12:00:49.259Z,38.76
2023-04-18T12:03:15.844Z,39.44
2023-04-18T12:05:42.523Z,38.33
2023-04-18T12:08:08.996Z,38.43
2023-04-18T12:10:35.399Z,38.52
2023-04-18T12:13:01.781Z,39.02
2023-04-18T12:15:28.207Z,38.30
2023-04-18T12:17:54.662Z,38.52
2023-04-18T12:20:21.078Z,38.66
2023-04-18T12:22:47.461Z,38.73
2023-04-18T12:25:13.829Z,39.67
2023-04-18T12:27:40.211Z,39.99
2023-04-18T12:30:06.635Z,40.05
2023-04-18T12:32:33.037Z,39.31
2023-04-18T12:34:59.614Z,39.02
2023-04-18T12:37:26.051Z,39.80
2023-04-18T12:39:52.466Z,39.56
2023-04-18T12:42:19.000Z,39.36
2023-04-18T12:44:46.985Z,39.69
2023-04-18T12:47:14.523Z,40.26
2023-04-18T12:49:40.955Z,39.83
2023-04-18T12:52:07.359Z,39.07
2023-04-18T12:54:33.802Z,39.43
2023-04-18T12:57:00.693Z,38.83
2023-04-18T12:59:27.161Z,38.77
2023-04-18T13:01:53.777Z,38.41
2023-04-18T13:04:20.439Z,38.00
2023-04-18T13:06:46.954Z,38.63
2023-04-18T13:09:13.658Z,38.05
2023-04-18T13:11:40.344Z,38.04
2023-04-18T13:14:06.765Z,38.77
2023-04-18T13:16:33.229Z,38.17
2023-04-18T13:18:59.640Z,38.84
2023-04-18T13:21:26.076Z,38.58
2023-04-18T13:23:52.939Z,39.24
2023-04-18T13:26:19.341Z,39.10
2023-04-18T13:28:45.762Z,39.08
2023-04-18T13:31:12.697Z,38.20
2023-04-18T13:33:39.774Z,38.20
2023-04-18T13:36:06.417Z,38.13
2023-04-18T13:38:32.826Z,37.80
2023-04-18T13:41:10.816Z,37.23
2023-04-18T13:43:39.103Z,36.42
2023-04-18T13:46:05.523Z,37.05
2023-04-18T13:48:32.061Z,37.00
2023-04-18T13:50:58.472Z,36.87
2023-04-18T13:53:24.876Z,36.68
2023-04-18T13:55:51.317Z,37.35
2023-04-18T13:58:17.713Z,36.71
2023-04-18T14:00:44.129Z,36.86
2023-04-18T14:03:10.890Z,37.77
2023-04-18T14:05:37.472Z,37.43
2023-04-18T14:08:03.851Z,37.72
2023-04-18T14:10:30.228Z,36.90
2023-04-18T14:12:56.621Z,36.83
2023-04-18T14:15:23.057Z,36.86
2023-04-18T14:17:49.494Z,35.88
2023-04-18T14:20:15.910Z,35.31
2023-04-18T14:22:42.279Z,35.41
2023-04-18T14:25:08.702Z,35.75
2023-04-18T14:27:35.119Z,35.11
2023-04-18T14:30:01.581Z,34.73
2023-04-18T14:32:28.142Z,35.08
2023-04-18T14:34:54.775Z,34.02
2023-04-18T14:37:21.271Z,34.29
2023-04-18T14:39:47.694Z,34.11
2023-04-18T14:42:14.156Z,33.20
2023-04-18T14:44:40.711Z,32.77
2023-04-18T14:47:07.227Z,32.24
2023-04-18T14:49:33.630Z,31.63
2023-04-18T14:52:00.114Z,30.96
2023-04-18T14:54:26.560Z,30.26
2023-04-18T14:56:52.987Z,29.18
2023-04-18T14:59:19.773Z,28.83
2023-04-18T15:01:46.520Z,28.07
2023-04-18T15:04:13.268Z,27.43
2023-04-18T15:06:40.028Z,26.49
2023-04-18T15:09:06.508Z,26.78
2023-04-18T15:11:32.927Z,25.76
2023-04-18T15:13:59.321Z,25.00
2023-04-18T15:16:25.993Z,24.78
2023-04-18T15:18:52.422Z,24.06
2023-04-18T15:21:18.836Z,24.39
2023-04-18T15:23:45.212Z,23.70
2023-04-18T15:26:11.691Z,23.23
2023-04-18T15:28:38.099Z,22.74
2023-04-18T15:31:04.552Z,22.83
2023-04-18T15:33:30.952Z,22.66
2023-04-18T15:35:57.345Z,22.89
2023-04-18T15:38:23.926Z,21.92
2023-04-18T15:40:50.379Z,22.45
2023-04-18T15:43:16.756Z,21.21
2023-04-18T15:45:43.253Z,21.35
2023-04-18T15:48:09.717Z,21.84
2023-04-18T15:50:36.179Z,20.91
2023-04-18T15:53:02.592Z,20.25
2023-04-18T15:55:29.054Z,20.79
2023-04-18T15:57:55.506Z,20.44
2023-04-18T16:00:21.890Z,20.25
2023-04-18T16:02:48.408Z,20.53
2023-04-18T16:05:14.872Z,20.88
2023-04-18T16:07:41.366Z,21.47
2023-04-18T16:10:07.960Z,21.66
2023-04-18T16:12:34.359Z,21.64
2023-04-18T16:15:00.788Z,22.11
2023-04-18T16:17:27.312Z,21.79
2023-04-18T16:19:53.765Z,21.83
2023-04-18T16:22:20.315Z,22.59
2023-04-18T16:24:46.726Z,25.22
2023-04-18T16:27:13.329Z,26.73
2023-04-18T16:29:39.705Z,27.73
2023-04-18T16:32:06.128Z,29.75
2023-04-18T16:34:32.498Z,29.67
2023-04-18T16:36:58.874Z,31.32
2023-04-18T16:39:25.269Z,32.97
2023-04-18T16:41:53.275Z,31.97
2023-04-18T16:44:19.720Z,32.67
2023-04-18T16:46:46.330Z,32.64
2023-04-18T16:49:12.752Z,33.91
2023-04-18T16:51:39.169Z,34.11
2023-04-18T16:54:05.558Z,34.68
2023-04-18T16:56:32.076Z,34.89
2023-04-18T16:58:58.608Z,35.34
2023-04-18T17:01:25.048Z,35.57
2023-04-18T17:03:51.528Z,35.94
2023-04-18T17:06:18.094Z,35.86
2023-04-18T17:08:44.776Z,35.98
2023-04-18T17:11:11.296Z,36.99
2023-04-18T17:13:37.829Z,35.88
2023-04-18T17:16:04.237Z,36.22
2023-04-18T17:18:30.739Z,35.82
2023-04-18T17:20:59.408Z,36.10
2023-04-18T17:23:25.785Z,36.26
2023-04-18T17:25:52.189Z,36.45
2023-04-18T17:28:18.815Z,36.29
2023-04-18T17:30:45.289Z,37.00
2023-04-18T17:33:11.718Z,37.82
2023-04-18T17:38:18.654Z,37.94
2023-04-18T17:40:45.354Z,38.95
2023-04-18T17:43:13.379Z,39.37
2023-04-18T17:45:48.188Z,40.06
2023-04-18T17:48:14.835Z,39.83
2023-04-18T17:50:41.310Z,40.98
2023-04-18T17:53:09.783Z,40.55
2023-04-18T17:55:39.458Z,41.68
2023-04-18T17:58:05.928Z,42.09
2023-04-18T18:00:32.498Z,42.44
2023-04-18T18:02:59.020Z,43.08
2023-04-18T18:05:34.998Z,43.15
2023-04-18T18:08:01.379Z,42.97
2023-04-18T18:10:28.290Z,42.27
2023-04-18T18:12:54.676Z,43.04
2023-04-18T18:15:21.227Z,43.03
2023-04-18T18:17:50.890Z,43.26
2023-04-18T18:20:18.808Z,44.49
2023-04-18T18:22:45.552Z,44.18
2023-04-18T18:25:14.722Z,44.99
2023-04-18T18:27:43.339Z,44.70
2023-04-18T18:30:09.917Z,45.29
2023-04-18T18:32:36.535Z,45.39
2023-04-18T18:35:03.162Z,44.91
2023-04-18T18:37:29.565Z,45.68
2023-04-18T18:39:55.975Z,45.44
2023-04-18T18:42:25.234Z,45.52
2023-04-18T18:44:51.721Z,45.78
2023-04-18T18:47:18.208Z,45.54
2023-04-18T18:49:47.204Z,46.13
2023-04-18T18:52:19.496Z,46.02
2023-04-18T18:54:49.075Z,46.52
2023-04-18T18:57:15.809Z,46.61
2023-04-18T18:59:42.647Z,45.85
2023-04-18T19:02:15.089Z,45.52
2023-04-18T19:04:42.237Z,45.82
2023-04-18T19:07:08.965Z,46.07
2023-04-18T19:09:36.888Z,46.02
2023-04-18T19:12:03.478Z,45.90
2023-04-18T19:14:30.117Z,46.13
2023-04-18T19:16:56.896Z,46.48
2023-04-18T19:19:25.680Z,46.83
2023-04-18T19:21:53.614Z,46.75
2023-04-18T19:24:22.862Z,46.71
2023-04-18T19:26:49.592Z,47.40
2023-04-18T19:29:31.906Z,47.21
2023-04-18T19:32:05.242Z,47.47
2023-04-18T19:37:12.913Z,48.95
2023-04-18T19:39:39.732Z,48.66
2023-04-18T19:42:06.271Z,49.50
2023-04-18T19:44:32.894Z,49.86
2023-04-18T19:46:59.657Z,49.30
2023-04-18T19:49:26.089Z,50.25
2023-04-18T19:51:52.981Z,50.43
2023-04-18T19:54:22.052Z,50.57
2023-04-18T19:56:48.712Z,51.33
2023-04-18T19:59:15.429Z,52.01
2023-04-18T20:01:42.215Z,50.59
2023-04-18T20:04:08.860Z,50.77
2023-04-18T20:06:35.632Z,51.50
2023-04-18T20:09:05.070Z,51.01
2023-04-18T20:11:31.445Z,51.48
2023-04-18T20:13:57.944Z,51.06
2023-04-18T20:16:24.683Z,51.18
2023-04-18T20:18:52.291Z,50.87
2023-04-18T20:21:20.222Z,50.84
2023-04-18T20:23:48.722Z,51.61
2023-04-18T20:26:15.266Z,50.54
2023-04-18T20:28:43.432Z,50.30
2023-04-18T20:31:09.894Z,50.17
2023-04-18T20:33:36.492Z,49.95
2023-04-18T20:36:03.348Z,49.80
2023-04-18T20:38:29.964Z,49.19
2023-04-18T20:40:56.618Z,48.86
2023-04-18T20:43:23.072Z,49.08
2023-04-18T20:45:51.162Z,48.69
2023-04-18T20:48:17.959Z,49.19
2023-04-18T20:50:44.336Z,49.11
2023-04-18T20:53:10.928Z,48.90
2023-04-18T20:55:37.676Z,48.90
2023-04-18T20:58:04.193Z,49.50
2023-04-18T21:00:36.184Z,49.10
2023-04-18T21:03:02.724Z,49.62
2023-04-18T21:05:32.635Z,49.50
2023-04-18T21:07:59.071Z,49.34
2023-04-18T21:10:25.525Z,49.22
2023-04-18T21:12:52.072Z,49.42
2023-04-18T21:15:18.663Z,49.41
2023-04-18T21:17:45.116Z,49.14
2023-04-18T21:20:12.254Z,48.77
2023-04-18T21:22:38.638Z,49.73
2023-04-18T21:25:05.161Z,50.57
2023-04-18T21:27:33.964Z,50.85
2023-04-18T21:30:01.769Z,51.55
2023-04-18T21:32:35.561Z,52.24
2023-04-18T21:35:01.977Z,51.56
2023-04-18T21:37:28.428Z,52.08
2023-04-18T21:39:57.061Z,52.16
2023-04-18T21:42:26.863Z,50.55
2023-04-18T21:44:53.301Z,50.47
2023-04-18T21:47:19.710Z,49.77
2023-04-18T21:49:48.049Z,49.62
2023-04-18T21:52:21.880Z,50.14
2023-04-18T21:54:48.352Z,50.12
2023-04-18T21:57:14.787Z,49.95
2023-04-18T21:59:41.162Z,50.54
2023-04-18T22:02:09.961Z,50.30
2023-04-18T22:04:36.444Z,50.52
2023-04-18T22:07:02.825Z,50.95
2023-04-18T22:09:29.210Z,50.64
2023-04-18T22:11:55.592Z,50.30
2023-04-18T22:14:22.302Z,50.17
2023-04-18T22:16:50.873Z,50.22
2023-04-18T22:19:17.381Z,50.82
2023-04-18T22:21:43.795Z,50.56
2023-04-18T22:24:10.166Z,50.48
2023-04-18T22:26:36.509Z,49.88
2023-04-18T22:29:02.952Z,50.25
2023-04-18T22:31:29.378Z,49.38
2023-04-18T22:33:55.785Z,49.64
2023-04-18T22:36:22.195Z,49.71
2023-04-18T22:38:48.576Z,50.28
2023-04-18T22:41:15.006Z,50.42
2023-04-18T22:43:41.379Z,50.43
2023-04-18T22:46:07.825Z,51.24
2023-04-18T22:48:34.278Z,50.80
2023-04-18T22:51:00.790Z,50.12
2023-04-18T22:53:27.169Z,50.82
2023-04-18T22:55:53.642Z,50.24
2023-04-18T22:58:20.200Z,50.80
2023-04-18T23:00:46.603Z,50.26
2023-04-18T23:03:13.111Z,51.36
2023-04-18T23:05:39.546Z,50.79
2023-04-18T23:08:05.979Z,51.07
2023-04-18T23:10:32.369Z,50.74
2023-04-18T23:12:58.806Z,51.87
2023-04-18T23:15:25.200Z,51.73
2023-04-18T23:17:51.590Z,51.48
2023-04-18T23:20:17.985Z,50.79
2023-04-18T23:22:44.415Z,51.05
2023-04-18T23:25:10.770Z,51.23
2023-04-18T23:27:37.203Z,50.88
2023-04-18T23:30:03.810Z,51.42
2023-04-18T23:32:30.241Z,50.79
2023-04-18T23:34:56.671Z,51.52
2023-04-18T23:37:23.072Z,50.94
2023-04-18T23:39:49.519Z,51.90
2023-04-18T23:42:15.884Z,51.09
2023-04-18T23:44:42.274Z,51.20
2023-04-18T23:47:08.676Z,51.67
2023-04-18T23:49:35.155Z,51.72
2023-04-18T23:52:01.535Z,51.61
2023-04-18T23:54:27.948Z,51.20
2023-04-18T23:56:54.417Z,51.49
2023-04-18T23:59:20.786Z,52.13
